sensor_id;sensor_type;location;lat;lon;timestamp;P1;durP1;ratioP1;P2;durP2;ratioP2
59854;SDS011;45732;52.850;6.896;2023-08-24T00:01:10;6.43;;;3.60;;
59854;SDS011;45732;52.850;6.896;2023-08-24T00:03:37;7.07;;;3.80;;
59854;SDS011;45732;52.850;6.896;2023-08-24T00:06:05;6.10;;;3.50;;
59854;SDS011;45732;52.850;6.896;2023-08-24T00:08:31;6.55;;;3.70;;
59854;SDS011;45732;52.850;6.896;2023-08-24T00:10:57;6.63;;;3.78;;
59854;SDS011;45732;52.850;6.896;2023-08-24T00:13:23;8.00;;;4.10;;
59854;SDS011;45732;52.850;6.896;2023-08-24T00:15:49;6.68;;;3.80;;
59854;SDS011;45732;52.850;6.896;2023-08-24T00:18:14;7.25;;;3.88;;
59854;SDS011;45732;52.850;6.896;2023-08-24T00:20:43;8.38;;;4.40;;
59854;SDS011;45732;52.850;6.896;2023-08-24T00:23:09;6.80;;;4.35;;
59854;SDS011;45732;52.850;6.896;2023-08-24T00:25:34;7.95;;;4.75;;
59854;SDS011;45732;52.850;6.896;2023-08-24T00:28:00;7.50;;;4.55;;
59854;SDS011;45732;52.850;6.896;2023-08-24T00:30:26;7.57;;;4.63;;
59854;SDS011;45732;52.850;6.896;2023-08-24T00:32:51;12.10;;;5.40;;
59854;SDS011;45732;52.850;6.896;2023-08-24T00:35:17;6.60;;;4.57;;
59854;SDS011;45732;52.850;6.896;2023-08-24T00:37:43;7.57;;;4.30;;
59854;SDS011;45732;52.850;6.896;2023-08-24T00:40:09;8.50;;;4.60;;
59854;SDS011;45732;52.850;6.896;2023-08-24T00:42:41;7.50;;;4.72;;
59854;SDS011;45732;52.850;6.896;2023-08-24T00:45:09;8.57;;;5.05;;
59854;SDS011;45732;52.850;6.896;2023-08-24T00:47:36;10.07;;;5.35;;
59854;SDS011;45732;52.850;6.896;2023-08-24T00:50:06;9.15;;;5.78;;
59854;SDS011;45732;52.850;6.896;2023-08-24T00:52:33;9.73;;;5.90;;
59854;SDS011;45732;52.850;6.896;2023-08-24T00:55:00;8.15;;;5.22;;
59854;SDS011;45732;52.850;6.896;2023-08-24T00:57:27;7.35;;;4.25;;
59854;SDS011;45732;52.850;6.896;2023-08-24T00:59:54;7.45;;;5.32;;
59854;SDS011;45732;52.850;6.896;2023-08-24T01:02:21;8.27;;;4.60;;
59854;SDS011;45732;52.850;6.896;2023-08-24T01:04:46;7.47;;;5.03;;
59854;SDS011;45732;52.850;6.896;2023-08-24T01:07:13;7.20;;;5.15;;
59854;SDS011;45732;52.850;6.896;2023-08-24T01:09:40;7.53;;;5.07;;
59854;SDS011;45732;52.850;6.896;2023-08-24T01:14:59;8.23;;;4.80;;
59854;SDS011;45732;52.850;6.896;2023-08-24T01:17:33;6.55;;;4.50;;
59854;SDS011;45732;52.850;6.896;2023-08-24T01:20:01;7.38;;;4.57;;
59854;SDS011;45732;52.850;6.896;2023-08-24T01:22:34;6.80;;;4.68;;
59854;SDS011;45732;52.850;6.896;2023-08-24T01:25:12;6.22;;;4.32;;
59854;SDS011;45732;52.850;6.896;2023-08-24T01:27:42;7.22;;;4.78;;
59854;SDS011;45732;52.850;6.896;2023-08-24T01:30:08;7.32;;;4.50;;
59854;SDS011;45732;52.850;6.896;2023-08-24T01:32:36;5.47;;;3.15;;
59854;SDS011;45732;52.850;6.896;2023-08-24T01:35:03;4.82;;;3.10;;
59854;SDS011;45732;52.850;6.896;2023-08-24T01:37:31;5.63;;;3.30;;
59854;SDS011;45732;52.850;6.896;2023-08-24T01:43:01;3.58;;;2.85;;
59854;SDS011;45732;52.850;6.896;2023-08-24T01:45:29;6.70;;;3.33;;
59854;SDS011;45732;52.850;6.896;2023-08-24T01:47:56;4.25;;;3.00;;
59854;SDS011;45732;52.850;6.896;2023-08-24T01:50:24;4.22;;;3.10;;
59854;SDS011;45732;52.850;6.896;2023-08-24T01:52:50;3.47;;;2.58;;
59854;SDS011;45732;52.850;6.896;2023-08-24T01:55:19;3.35;;;2.47;;
59854;SDS011;45732;52.850;6.896;2023-08-24T01:57:45;2.20;;;1.95;;
59854;SDS011;45732;52.850;6.896;2023-08-24T02:00:11;2.70;;;2.08;;
59854;SDS011;45732;52.850;6.896;2023-08-24T02:02:37;4.68;;;2.97;;
59854;SDS011;45732;52.850;6.896;2023-08-24T02:05:03;5.28;;;2.90;;
59854;SDS011;45732;52.850;6.896;2023-08-24T02:07:29;5.40;;;3.70;;
59854;SDS011;45732;52.850;6.896;2023-08-24T02:09:55;6.93;;;4.22;;
59854;SDS011;45732;52.850;6.896;2023-08-24T02:12:21;9.02;;;5.47;;
59854;SDS011;45732;52.850;6.896;2023-08-24T02:14:47;7.85;;;5.65;;
59854;SDS011;45732;52.850;6.896;2023-08-24T02:17:13;8.40;;;5.53;;
59854;SDS011;45732;52.850;6.896;2023-08-24T02:19:39;7.57;;;5.78;;
59854;SDS011;45732;52.850;6.896;2023-08-24T02:22:06;12.70;;;7.03;;
59854;SDS011;45732;52.850;6.896;2023-08-24T02:24:32;8.25;;;6.75;;
59854;SDS011;45732;52.850;6.896;2023-08-24T02:26:58;10.10;;;6.30;;
59854;SDS011;45732;52.850;6.896;2023-08-24T02:29:25;11.90;;;7.25;;
59854;SDS011;45732;52.850;6.896;2023-08-24T02:31:51;10.25;;;7.38;;
59854;SDS011;45732;52.850;6.896;2023-08-24T02:34:17;9.43;;;6.78;;
59854;SDS011;45732;52.850;6.896;2023-08-24T02:36:42;12.02;;;7.47;;
59854;SDS011;45732;52.850;6.896;2023-08-24T02:39:08;11.10;;;8.15;;
59854;SDS011;45732;52.850;6.896;2023-08-24T02:41:34;12.43;;;8.63;;
59854;SDS011;45732;52.850;6.896;2023-08-24T02:44:00;11.40;;;8.23;;
59854;SDS011;45732;52.850;6.896;2023-08-24T02:46:26;10.63;;;8.07;;
59854;SDS011;45732;52.850;6.896;2023-08-24T02:48:52;11.90;;;8.02;;
59854;SDS011;45732;52.850;6.896;2023-08-24T02:51:21;13.25;;;8.38;;
59854;SDS011;45732;52.850;6.896;2023-08-24T02:53:48;11.30;;;8.85;;
59854;SDS011;45732;52.850;6.896;2023-08-24T02:56:14;10.77;;;8.40;;
59854;SDS011;45732;52.850;6.896;2023-08-24T02:58:40;13.32;;;9.68;;
59854;SDS011;45732;52.850;6.896;2023-08-24T03:01:06;11.25;;;8.40;;
59854;SDS011;45732;52.850;6.896;2023-08-24T03:03:32;12.07;;;8.50;;
59854;SDS011;45732;52.850;6.896;2023-08-24T03:06:02;11.32;;;8.50;;
59854;SDS011;45732;52.850;6.896;2023-08-24T03:08:30;12.00;;;8.68;;
59854;SDS011;45732;52.850;6.896;2023-08-24T03:10:56;12.77;;;9.27;;
59854;SDS011;45732;52.850;6.896;2023-08-24T03:13:25;11.73;;;9.10;;
59854;SDS011;45732;52.850;6.896;2023-08-24T03:15:52;11.38;;;8.98;;
59854;SDS011;45732;52.850;6.896;2023-08-24T03:18:18;11.60;;;8.65;;
59854;SDS011;45732;52.850;6.896;2023-08-24T03:20:44;11.23;;;8.25;;
59854;SDS011;45732;52.850;6.896;2023-08-24T03:23:11;12.60;;;8.43;;
59854;SDS011;45732;52.850;6.896;2023-08-24T03:25:37;11.38;;;7.93;;
59854;SDS011;45732;52.850;6.896;2023-08-24T03:28:04;8.68;;;6.93;;
59854;SDS011;45732;52.850;6.896;2023-08-24T03:30:30;11.85;;;7.00;;
59854;SDS011;45732;52.850;6.896;2023-08-24T03:32:56;10.50;;;6.80;;
59854;SDS011;45732;52.850;6.896;2023-08-24T03:35:24;9.43;;;5.70;;
59854;SDS011;45732;52.850;6.896;2023-08-24T03:37:50;9.85;;;6.60;;
59854;SDS011;45732;52.850;6.896;2023-08-24T03:40:16;11.30;;;7.10;;
59854;SDS011;45732;52.850;6.896;2023-08-24T03:42:42;10.52;;;7.30;;
59854;SDS011;45732;52.850;6.896;2023-08-24T03:45:07;10.43;;;8.02;;
59854;SDS011;45732;52.850;6.896;2023-08-24T03:47:33;11.70;;;7.90;;
59854;SDS011;45732;52.850;6.896;2023-08-24T03:49:59;10.50;;;8.52;;
59854;SDS011;45732;52.850;6.896;2023-08-24T03:52:25;12.63;;;9.80;;
59854;SDS011;45732;52.850;6.896;2023-08-24T03:54:50;12.75;;;8.68;;
59854;SDS011;45732;52.850;6.896;2023-08-24T03:57:16;11.18;;;8.55;;
59854;SDS011;45732;52.850;6.896;2023-08-24T03:59:42;11.13;;;8.25;;
59854;SDS011;45732;52.850;6.896;2023-08-24T04:02:07;12.27;;;9.30;;
59854;SDS011;45732;52.850;6.896;2023-08-24T04:04:33;11.63;;;9.23;;
59854;SDS011;45732;52.850;6.896;2023-08-24T04:06:59;11.30;;;9.02;;
59854;SDS011;45732;52.850;6.896;2023-08-24T04:09:25;12.20;;;9.32;;
59854;SDS011;45732;52.850;6.896;2023-08-24T04:11:51;10.18;;;9.07;;
59854;SDS011;45732;52.850;6.896;2023-08-24T04:14:16;11.73;;;8.70;;
59854;SDS011;45732;52.850;6.896;2023-08-24T04:16:42;12.45;;;8.88;;
59854;SDS011;45732;52.850;6.896;2023-08-24T04:19:08;11.77;;;8.57;;
59854;SDS011;45732;52.850;6.896;2023-08-24T04:21:34;9.38;;;7.50;;
59854;SDS011;45732;52.850;6.896;2023-08-24T04:23:59;9.63;;;7.80;;
59854;SDS011;45732;52.850;6.896;2023-08-24T04:26:25;9.50;;;6.95;;
59854;SDS011;45732;52.850;6.896;2023-08-24T04:28:51;8.55;;;6.97;;
59854;SDS011;45732;52.850;6.896;2023-08-24T04:31:17;8.07;;;5.88;;
59854;SDS011;45732;52.850;6.896;2023-08-24T04:33:42;7.05;;;5.70;;
59854;SDS011;45732;52.850;6.896;2023-08-24T04:36:08;7.25;;;5.38;;
59854;SDS011;45732;52.850;6.896;2023-08-24T04:38:34;8.20;;;5.75;;
59854;SDS011;45732;52.850;6.896;2023-08-24T04:41:00;7.65;;;5.15;;
59854;SDS011;45732;52.850;6.896;2023-08-24T04:43:26;6.55;;;4.38;;
59854;SDS011;45732;52.850;6.896;2023-08-24T04:45:52;8.70;;;5.68;;
59854;SDS011;45732;52.850;6.896;2023-08-24T04:48:22;7.68;;;6.07;;
59854;SDS011;45732;52.850;6.896;2023-08-24T04:50:48;7.90;;;5.75;;
59854;SDS011;45732;52.850;6.896;2023-08-24T04:53:15;7.80;;;5.68;;
59854;SDS011;45732;52.850;6.896;2023-08-24T04:55:42;7.00;;;4.68;;
59854;SDS011;45732;52.850;6.896;2023-08-24T04:58:09;7.57;;;4.78;;
59854;SDS011;45732;52.850;6.896;2023-08-24T05:00:35;7.90;;;5.53;;
59854;SDS011;45732;52.850;6.896;2023-08-24T05:03:05;8.75;;;6.82;;
59854;SDS011;45732;52.850;6.896;2023-08-24T05:05:32;8.02;;;6.05;;
59854;SDS011;45732;52.850;6.896;2023-08-24T05:08:00;7.60;;;4.85;;
59854;SDS011;45732;52.850;6.896;2023-08-24T05:10:30;8.45;;;6.18;;
59854;SDS011;45732;52.850;6.896;2023-08-24T05:12:56;8.40;;;7.10;;
59854;SDS011;45732;52.850;6.896;2023-08-24T05:15:22;9.68;;;7.30;;
59854;SDS011;45732;52.850;6.896;2023-08-24T05:17:48;10.50;;;7.68;;
59854;SDS011;45732;52.850;6.896;2023-08-24T05:20:13;11.52;;;8.43;;
59854;SDS011;45732;52.850;6.896;2023-08-24T05:22:39;12.23;;;8.27;;
59854;SDS011;45732;52.850;6.896;2023-08-24T05:25:05;10.05;;;7.65;;
59854;SDS011;45732;52.850;6.896;2023-08-24T05:27:31;11.85;;;8.10;;
59854;SDS011;45732;52.850;6.896;2023-08-24T05:29:57;11.15;;;8.02;;
59854;SDS011;45732;52.850;6.896;2023-08-24T05:32:23;12.10;;;7.50;;
59854;SDS011;45732;52.850;6.896;2023-08-24T05:34:49;9.73;;;6.63;;
59854;SDS011;45732;52.850;6.896;2023-08-24T05:37:14;11.82;;;7.35;;
59854;SDS011;45732;52.850;6.896;2023-08-24T05:39:40;10.73;;;7.25;;
59854;SDS011;45732;52.850;6.896;2023-08-24T05:42:06;11.45;;;6.65;;
59854;SDS011;45732;52.850;6.896;2023-08-24T05:44:33;8.77;;;6.28;;
59854;SDS011;45732;52.850;6.896;2023-08-24T05:46:58;9.60;;;6.70;;
59854;SDS011;45732;52.850;6.896;2023-08-24T05:49:24;11.13;;;7.25;;
59854;SDS011;45732;52.850;6.896;2023-08-24T05:51:50;12.18;;;7.32;;
59854;SDS011;45732;52.850;6.896;2023-08-24T05:54:16;10.32;;;7.13;;
59854;SDS011;45732;52.850;6.896;2023-08-24T05:56:45;10.48;;;7.10;;
59854;SDS011;45732;52.850;6.896;2023-08-24T05:59:11;9.13;;;6.93;;
59854;SDS011;45732;52.850;6.896;2023-08-24T06:01:37;8.75;;;6.65;;
59854;SDS011;45732;52.850;6.896;2023-08-24T06:04:04;9.32;;;6.28;;
59854;SDS011;45732;52.850;6.896;2023-08-24T06:06:30;10.82;;;6.68;;
59854;SDS011;45732;52.850;6.896;2023-08-24T06:08:56;9.82;;;6.35;;
59854;SDS011;45732;52.850;6.896;2023-08-24T06:11:22;10.70;;;7.10;;
59854;SDS011;45732;52.850;6.896;2023-08-24T06:13:48;10.82;;;7.35;;
59854;SDS011;45732;52.850;6.896;2023-08-24T06:16:14;9.35;;;6.70;;
59854;SDS011;45732;52.850;6.896;2023-08-24T06:18:40;17.00;;;7.20;;
59854;SDS011;45732;52.850;6.896;2023-08-24T06:21:05;10.57;;;6.00;;
59854;SDS011;45732;52.850;6.896;2023-08-24T06:23:33;11.98;;;6.93;;
59854;SDS011;45732;52.850;6.896;2023-08-24T06:25:59;13.35;;;6.70;;
59854;SDS011;45732;52.850;6.896;2023-08-24T06:28:26;10.70;;;6.82;;
59854;SDS011;45732;52.850;6.896;2023-08-24T06:30:52;12.10;;;7.00;;
59854;SDS011;45732;52.850;6.896;2023-08-24T06:33:20;11.90;;;6.95;;
59854;SDS011;45732;52.850;6.896;2023-08-24T06:35:46;13.70;;;7.75;;
59854;SDS011;45732;52.850;6.896;2023-08-24T06:38:13;11.35;;;6.72;;
59854;SDS011;45732;52.850;6.896;2023-08-24T06:40:38;12.65;;;7.95;;
59854;SDS011;45732;52.850;6.896;2023-08-24T06:43:04;11.68;;;7.30;;
59854;SDS011;45732;52.850;6.896;2023-08-24T06:45:30;11.32;;;7.88;;
59854;SDS011;45732;52.850;6.896;2023-08-24T06:47:56;15.63;;;9.45;;
59854;SDS011;45732;52.850;6.896;2023-08-24T06:50:22;12.98;;;9.50;;
59854;SDS011;45732;52.850;6.896;2023-08-24T06:52:47;13.20;;;8.80;;
59854;SDS011;45732;52.850;6.896;2023-08-24T06:55:14;13.52;;;9.05;;
59854;SDS011;45732;52.850;6.896;2023-08-24T06:57:40;12.75;;;9.30;;
59854;SDS011;45732;52.850;6.896;2023-08-24T07:00:06;13.30;;;9.88;;
59854;SDS011;45732;52.850;6.896;2023-08-24T07:02:34;13.32;;;10.35;;
59854;SDS011;45732;52.850;6.896;2023-08-24T07:05:03;13.48;;;10.48;;
59854;SDS011;45732;52.850;6.896;2023-08-24T07:07:34;17.52;;;11.30;;
59854;SDS011;45732;52.850;6.896;2023-08-24T07:10:00;15.35;;;10.98;;
59854;SDS011;45732;52.850;6.896;2023-08-24T07:12:26;16.50;;;11.45;;
59854;SDS011;45732;52.850;6.896;2023-08-24T07:14:51;16.13;;;11.20;;
59854;SDS011;45732;52.850;6.896;2023-08-24T07:17:17;14.98;;;11.50;;
59854;SDS011;45732;52.850;6.896;2023-08-24T07:19:43;16.80;;;11.73;;
59854;SDS011;45732;52.850;6.896;2023-08-24T07:22:09;16.20;;;11.85;;
59854;SDS011;45732;52.850;6.896;2023-08-24T07:24:34;12.68;;;9.82;;
59854;SDS011;45732;52.850;6.896;2023-08-24T07:27:01;17.10;;;11.35;;
59854;SDS011;45732;52.850;6.896;2023-08-24T07:29:30;17.30;;;10.77;;
59854;SDS011;45732;52.850;6.896;2023-08-24T07:31:56;15.30;;;10.98;;
59854;SDS011;45732;52.850;6.896;2023-08-24T07:34:22;14.20;;;10.30;;
59854;SDS011;45732;52.850;6.896;2023-08-24T07:36:48;13.18;;;8.95;;
59854;SDS011;45732;52.850;6.896;2023-08-24T07:39:14;13.20;;;9.35;;
59854;SDS011;45732;52.850;6.896;2023-08-24T07:41:44;12.45;;;9.10;;
59854;SDS011;45732;52.850;6.896;2023-08-24T07:44:10;11.73;;;9.23;;
59854;SDS011;45732;52.850;6.896;2023-08-24T07:46:36;16.25;;;10.35;;
59854;SDS011;45732;52.850;6.896;2023-08-24T07:49:03;14.70;;;10.68;;
59854;SDS011;45732;52.850;6.896;2023-08-24T07:51:30;15.35;;;10.75;;
59854;SDS011;45732;52.850;6.896;2023-08-24T07:53:55;17.88;;;10.95;;
59854;SDS011;45732;52.850;6.896;2023-08-24T07:56:21;15.57;;;10.32;;
59854;SDS011;45732;52.850;6.896;2023-08-24T07:58:48;13.05;;;9.68;;
59854;SDS011;45732;52.850;6.896;2023-08-24T08:01:13;14.40;;;9.65;;
59854;SDS011;45732;52.850;6.896;2023-08-24T08:03:39;15.88;;;9.32;;
59854;SDS011;45732;52.850;6.896;2023-08-24T08:06:05;14.55;;;9.43;;
59854;SDS011;45732;52.850;6.896;2023-08-24T08:08:30;11.73;;;9.13;;
59854;SDS011;45732;52.850;6.896;2023-08-24T08:11:00;13.73;;;9.35;;
59854;SDS011;45732;52.850;6.896;2023-08-24T08:13:29;11.73;;;9.13;;
59854;SDS011;45732;52.850;6.896;2023-08-24T08:16:02;12.90;;;9.45;;
59854;SDS011;45732;52.850;6.896;2023-08-24T08:18:31;12.70;;;9.30;;
59854;SDS011;45732;52.850;6.896;2023-08-24T08:20:57;16.35;;;10.25;;
59854;SDS011;45732;52.850;6.896;2023-08-24T08:23:23;16.23;;;10.48;;
59854;SDS011;45732;52.850;6.896;2023-08-24T08:25:49;15.90;;;9.93;;
59854;SDS011;45732;52.850;6.896;2023-08-24T08:28:15;13.48;;;9.23;;
59854;SDS011;45732;52.850;6.896;2023-08-24T08:30:42;16.13;;;9.75;;
59854;SDS011;45732;52.850;6.896;2023-08-24T08:33:09;12.40;;;9.95;;
59854;SDS011;45732;52.850;6.896;2023-08-24T08:35:35;13.48;;;9.45;;
59854;SDS011;45732;52.850;6.896;2023-08-24T08:38:00;15.48;;;10.70;;
59854;SDS011;45732;52.850;6.896;2023-08-24T08:40:26;13.57;;;10.15;;
59854;SDS011;45732;52.850;6.896;2023-08-24T08:42:58;14.57;;;11.20;;
59854;SDS011;45732;52.850;6.896;2023-08-24T08:45:24;15.25;;;10.68;;
59854;SDS011;45732;52.850;6.896;2023-08-24T08:47:51;13.38;;;10.63;;
59854;SDS011;45732;52.850;6.896;2023-08-24T08:50:18;14.25;;;10.23;;
59854;SDS011;45732;52.850;6.896;2023-08-24T08:52:45;15.07;;;11.35;;
59854;SDS011;45732;52.850;6.896;2023-08-24T08:55:11;14.80;;;11.68;;
59854;SDS011;45732;52.850;6.896;2023-08-24T08:57:37;13.15;;;10.52;;
59854;SDS011;45732;52.850;6.896;2023-08-24T09:00:05;14.10;;;11.02;;
59854;SDS011;45732;52.850;6.896;2023-08-24T09:02:35;13.75;;;10.88;;
59854;SDS011;45732;52.850;6.896;2023-08-24T09:05:01;15.57;;;11.90;;
59854;SDS011;45732;52.850;6.896;2023-08-24T09:07:29;13.80;;;10.95;;
59854;SDS011;45732;52.850;6.896;2023-08-24T09:09:55;14.52;;;10.93;;
59854;SDS011;45732;52.850;6.896;2023-08-24T09:12:21;13.27;;;10.60;;
59854;SDS011;45732;52.850;6.896;2023-08-24T09:14:46;12.70;;;10.50;;
59854;SDS011;45732;52.850;6.896;2023-08-24T09:17:19;12.65;;;10.85;;
59854;SDS011;45732;52.850;6.896;2023-08-24T09:19:46;14.57;;;10.73;;
59854;SDS011;45732;52.850;6.896;2023-08-24T09:22:22;12.95;;;9.93;;
59854;SDS011;45732;52.850;6.896;2023-08-24T09:24:48;14.77;;;11.18;;
59854;SDS011;45732;52.850;6.896;2023-08-24T09:27:17;12.95;;;10.13;;
59854;SDS011;45732;52.850;6.896;2023-08-24T09:29:51;15.98;;;10.40;;
59854;SDS011;45732;52.850;6.896;2023-08-24T09:32:30;12.85;;;9.85;;
59854;SDS011;45732;52.850;6.896;2023-08-24T09:37:35;12.75;;;9.20;;
59854;SDS011;45732;52.850;6.896;2023-08-24T09:40:02;15.55;;;10.45;;
59854;SDS011;45732;52.850;6.896;2023-08-24T09:42:36;13.43;;;9.77;;
59854;SDS011;45732;52.850;6.896;2023-08-24T09:45:08;13.20;;;9.60;;
59854;SDS011;45732;52.850;6.896;2023-08-24T09:47:37;12.48;;;8.85;;
59854;SDS011;45732;52.850;6.896;2023-08-24T09:50:03;16.38;;;9.93;;
59854;SDS011;45732;52.850;6.896;2023-08-24T09:52:33;11.05;;;8.15;;
59854;SDS011;45732;52.850;6.896;2023-08-24T09:55:05;12.00;;;8.32;;
59854;SDS011;45732;52.850;6.896;2023-08-24T09:57:36;14.93;;;8.35;;
59854;SDS011;45732;52.850;6.896;2023-08-24T10:00:07;10.18;;;7.85;;
59854;SDS011;45732;52.850;6.896;2023-08-24T10:02:46;9.30;;;7.32;;
59854;SDS011;45732;52.850;6.896;2023-08-24T10:05:23;14.75;;;7.72;;
59854;SDS011;45732;52.850;6.896;2023-08-24T10:07:52;11.98;;;7.93;;
59854;SDS011;45732;52.850;6.896;2023-08-24T10:10:19;11.20;;;7.25;;
59854;SDS011;45732;52.850;6.896;2023-08-24T10:12:47;11.32;;;7.90;;
59854;SDS011;45732;52.850;6.896;2023-08-24T10:15:17;12.82;;;8.07;;
59854;SDS011;45732;52.850;6.896;2023-08-24T10:17:44;10.55;;;7.63;;
59854;SDS011;45732;52.850;6.896;2023-08-24T10:20:10;11.43;;;7.57;;
59854;SDS011;45732;52.850;6.896;2023-08-24T10:22:37;11.60;;;6.97;;
59854;SDS011;45732;52.850;6.896;2023-08-24T10:25:06;11.07;;;7.53;;
59854;SDS011;45732;52.850;6.896;2023-08-24T10:27:34;10.57;;;7.28;;
59854;SDS011;45732;52.850;6.896;2023-08-24T10:29:59;11.75;;;7.55;;
59854;SDS011;45732;52.850;6.896;2023-08-24T10:32:25;9.63;;;7.68;;
59854;SDS011;45732;52.850;6.896;2023-08-24T10:34:52;11.38;;;7.28;;
59854;SDS011;45732;52.850;6.896;2023-08-24T10:37:24;12.05;;;7.43;;
59854;SDS011;45732;52.850;6.896;2023-08-24T10:39:51;11.02;;;7.30;;
59854;SDS011;45732;52.850;6.896;2023-08-24T10:42:16;11.70;;;7.28;;
59854;SDS011;45732;52.850;6.896;2023-08-24T10:44:45;11.52;;;7.72;;
59854;SDS011;45732;52.850;6.896;2023-08-24T10:52:25;12.18;;;8.15;;
59854;SDS011;45732;52.850;6.896;2023-08-24T10:54:55;12.30;;;7.53;;
59854;SDS011;45732;52.850;6.896;2023-08-24T10:57:22;11.38;;;7.25;;
59854;SDS011;45732;52.850;6.896;2023-08-24T11:02:43;10.82;;;7.75;;
59854;SDS011;45732;52.850;6.896;2023-08-24T11:10:17;11.00;;;7.80;;
59854;SDS011;45732;52.850;6.896;2023-08-24T11:15:37;11.93;;;8.13;;
59854;SDS011;45732;52.850;6.896;2023-08-24T11:20:43;12.52;;;8.15;;
59854;SDS011;45732;52.850;6.896;2023-08-24T11:23:20;13.77;;;8.18;;
59854;SDS011;45732;52.850;6.896;2023-08-24T11:25:46;12.27;;;8.18;;
59854;SDS011;45732;52.850;6.896;2023-08-24T11:28:16;10.95;;;8.52;;
59854;SDS011;45732;52.850;6.896;2023-08-24T11:30:44;12.48;;;8.30;;
59854;SDS011;45732;52.850;6.896;2023-08-24T11:33:10;12.60;;;8.00;;
59854;SDS011;45732;52.850;6.896;2023-08-24T11:35:36;15.82;;;8.63;;
59854;SDS011;45732;52.850;6.896;2023-08-24T11:38:02;12.43;;;8.68;;
59854;SDS011;45732;52.850;6.896;2023-08-24T11:40:28;11.82;;;8.85;;
59854;SDS011;45732;52.850;6.896;2023-08-24T11:42:57;11.43;;;8.10;;
59854;SDS011;45732;52.850;6.896;2023-08-24T11:45:22;11.70;;;7.50;;
59854;SDS011;45732;52.850;6.896;2023-08-24T11:47:49;13.82;;;7.35;;
59854;SDS011;45732;52.850;6.896;2023-08-24T11:50:18;9.93;;;7.60;;
59854;SDS011;45732;52.850;6.896;2023-08-24T11:52:44;12.88;;;7.72;;
59854;SDS011;45732;52.850;6.896;2023-08-24T11:55:10;10.25;;;7.28;;
59854;SDS011;45732;52.850;6.896;2023-08-24T11:57:36;10.85;;;6.63;;
59854;SDS011;45732;52.850;6.896;2023-08-24T12:00:03;11.80;;;7.28;;
59854;SDS011;45732;52.850;6.896;2023-08-24T12:02:30;9.43;;;6.93;;
59854;SDS011;45732;52.850;6.896;2023-08-24T12:04:57;10.25;;;7.10;;
59854;SDS011;45732;52.850;6.896;2023-08-24T12:07:23;11.05;;;6.28;;
59854;SDS011;45732;52.850;6.896;2023-08-24T12:09:49;10.07;;;6.50;;
59854;SDS011;45732;52.850;6.896;2023-08-24T12:12:18;8.10;;;6.32;;
59854;SDS011;45732;52.850;6.896;2023-08-24T12:14:46;11.63;;;6.55;;
59854;SDS011;45732;52.850;6.896;2023-08-24T12:17:13;10.35;;;6.47;;
59854;SDS011;45732;52.850;6.896;2023-08-24T12:19:43;11.70;;;6.70;;
59854;SDS011;45732;52.850;6.896;2023-08-24T12:22:13;10.23;;;5.78;;
59854;SDS011;45732;52.850;6.896;2023-08-24T12:24:45;12.43;;;6.60;;
59854;SDS011;45732;52.850;6.896;2023-08-24T12:27:17;11.88;;;5.93;;
59854;SDS011;45732;52.850;6.896;2023-08-24T12:29:52;10.18;;;5.97;;
59854;SDS011;45732;52.850;6.896;2023-08-24T12:32:18;8.07;;;5.63;;
59854;SDS011;45732;52.850;6.896;2023-08-24T12:34:48;8.98;;;5.53;;
59854;SDS011;45732;52.850;6.896;2023-08-24T12:37:14;9.82;;;5.90;;
59854;SDS011;45732;52.850;6.896;2023-08-24T12:39:39;11.35;;;5.97;;
59854;SDS011;45732;52.850;6.896;2023-08-24T12:42:05;9.35;;;6.20;;
59854;SDS011;45732;52.850;6.896;2023-08-24T12:44:31;10.68;;;5.95;;
59854;SDS011;45732;52.850;6.896;2023-08-24T12:47:01;9.73;;;6.65;;
59854;SDS011;45732;52.850;6.896;2023-08-24T12:49:28;9.85;;;6.30;;
59854;SDS011;45732;52.850;6.896;2023-08-24T12:51:53;8.57;;;5.75;;
59854;SDS011;45732;52.850;6.896;2023-08-24T12:54:19;9.48;;;5.88;;
59854;SDS011;45732;52.850;6.896;2023-08-24T12:56:45;8.48;;;6.22;;
59854;SDS011;45732;52.850;6.896;2023-08-24T12:59:10;9.73;;;6.35;;
59854;SDS011;45732;52.850;6.896;2023-08-24T13:01:37;11.15;;;6.65;;
59854;SDS011;45732;52.850;6.896;2023-08-24T13:04:03;10.98;;;6.25;;
59854;SDS011;45732;52.850;6.896;2023-08-24T13:06:29;14.00;;;6.60;;
59854;SDS011;45732;52.850;6.896;2023-08-24T13:08:56;12.25;;;7.05;;
59854;SDS011;45732;52.850;6.896;2023-08-24T13:11:22;10.88;;;6.65;;
59854;SDS011;45732;52.850;6.896;2023-08-24T13:13:48;9.77;;;6.20;;
59854;SDS011;45732;52.850;6.896;2023-08-24T13:16:14;9.90;;;6.47;;
59854;SDS011;45732;52.850;6.896;2023-08-24T13:18:40;11.25;;;7.00;;
59854;SDS011;45732;52.850;6.896;2023-08-24T13:21:07;11.15;;;6.57;;
59854;SDS011;45732;52.850;6.896;2023-08-24T13:23:32;11.05;;;7.03;;
59854;SDS011;45732;52.850;6.896;2023-08-24T13:25:59;11.32;;;6.20;;
59854;SDS011;45732;52.850;6.896;2023-08-24T13:28:25;10.35;;;6.20;;
59854;SDS011;45732;52.850;6.896;2023-08-24T13:30:50;11.10;;;7.13;;
59854;SDS011;45732;52.850;6.896;2023-08-24T13:33:16;12.15;;;6.80;;
59854;SDS011;45732;52.850;6.896;2023-08-24T13:35:44;11.20;;;6.78;;
59854;SDS011;45732;52.850;6.896;2023-08-24T13:38:10;11.35;;;6.32;;
59854;SDS011;45732;52.850;6.896;2023-08-24T13:40:36;14.00;;;6.55;;
59854;SDS011;45732;52.850;6.896;2023-08-24T13:43:01;11.48;;;6.95;;
59854;SDS011;45732;52.850;6.896;2023-08-24T13:45:27;8.93;;;6.20;;
59854;SDS011;45732;52.850;6.896;2023-08-24T13:47:55;12.45;;;6.53;;
59854;SDS011;45732;52.850;6.896;2023-08-24T13:50:21;15.05;;;6.78;;
59854;SDS011;45732;52.850;6.896;2023-08-24T13:52:47;11.63;;;6.10;;
59854;SDS011;45732;52.850;6.896;2023-08-24T13:55:14;9.80;;;6.20;;
59854;SDS011;45732;52.850;6.896;2023-08-24T13:57:39;10.10;;;5.95;;
59854;SDS011;45732;52.850;6.896;2023-08-24T14:00:05;10.38;;;5.97;;
59854;SDS011;45732;52.850;6.896;2023-08-24T14:02:33;8.27;;;5.03;;
59854;SDS011;45732;52.850;6.896;2023-08-24T14:04:59;9.73;;;6.40;;
59854;SDS011;45732;52.850;6.896;2023-08-24T14:07:25;9.75;;;5.97;;
59854;SDS011;45732;52.850;6.896;2023-08-24T14:09:50;10.93;;;5.80;;
59854;SDS011;45732;52.850;6.896;2023-08-24T14:12:17;10.63;;;6.22;;
59854;SDS011;45732;52.850;6.896;2023-08-24T14:14:42;8.98;;;5.90;;
59854;SDS011;45732;52.850;6.896;2023-08-24T14:17:08;11.15;;;5.90;;
59854;SDS011;45732;52.850;6.896;2023-08-24T14:19:34;8.88;;;6.00;;
59854;SDS011;45732;52.850;6.896;2023-08-24T14:21:59;9.55;;;5.25;;
59854;SDS011;45732;52.850;6.896;2023-08-24T14:24:25;12.63;;;6.50;;
59854;SDS011;45732;52.850;6.896;2023-08-24T14:26:51;10.25;;;5.85;;
59854;SDS011;45732;52.850;6.896;2023-08-24T14:29:16;8.82;;;6.45;;
59854;SDS011;45732;52.850;6.896;2023-08-24T14:31:42;9.35;;;6.38;;
59854;SDS011;45732;52.850;6.896;2023-08-24T14:34:08;10.07;;;6.35;;
59854;SDS011;45732;52.850;6.896;2023-08-24T14:36:33;9.38;;;6.25;;
59854;SDS011;45732;52.850;6.896;2023-08-24T14:38:59;9.13;;;6.68;;
59854;SDS011;45732;52.850;6.896;2023-08-24T14:41:25;10.05;;;8.10;;
59854;SDS011;45732;52.850;6.896;2023-08-24T14:43:51;11.70;;;8.30;;
59854;SDS011;45732;52.850;6.896;2023-08-24T14:46:16;11.18;;;9.18;;
59854;SDS011;45732;52.850;6.896;2023-08-24T14:48:42;11.00;;;9.07;;
59854;SDS011;45732;52.850;6.896;2023-08-24T14:51:08;10.38;;;8.02;;
59854;SDS011;45732;52.850;6.896;2023-08-24T14:53:33;12.65;;;8.93;;
59854;SDS011;45732;52.850;6.896;2023-08-24T14:56:00;10.93;;;9.43;;
59854;SDS011;45732;52.850;6.896;2023-08-24T14:58:26;12.90;;;9.43;;
59854;SDS011;45732;52.850;6.896;2023-08-24T15:00:53;11.63;;;8.95;;
59854;SDS011;45732;52.850;6.896;2023-08-24T15:03:22;9.93;;;8.40;;